sensor_id;sensor_type;location;lat;lon;timestamp;P1;durP1;ratioP1;P2;durP2;ratioP2
4939;SDS011;2485;49.326;7.214;2022-11-20T00:02:27;15.13;;;8.97;;
4939;SDS011;2485;49.326;7.214;2022-11-20T00:04:54;14.93;;;8.60;;
4939;SDS011;2485;49.326;7.214;2022-11-20T00:07:22;19.17;;;10.00;;
4939;SDS011;2485;49.326;7.214;2022-11-20T00:09:48;20.10;;;9.00;;
4939;SDS011;2485;49.326;7.214;2022-11-20T00:12:14;17.03;;;8.47;;
4939;SDS011;2485;49.326;7.214;2022-11-20T00:14:41;22.77;;;8.80;;
4939;SDS011;2485;49.326;7.214;2022-11-20T00:17:07;18.63;;;8.10;;
4939;SDS011;2485;49.326;7.214;2022-11-20T00:19:34;14.67;;;8.37;;
4939;SDS011;2485;49.326;7.214;2022-11-20T00:22:00;15.13;;;8.70;;
4939;SDS011;2485;49.326;7.214;2022-11-20T00:24:28;15.30;;;8.67;;
4939;SDS011;2485;49.326;7.214;2022-11-20T00:26:54;12.50;;;8.03;;
4939;SDS011;2485;49.326;7.214;2022-11-20T00:29:20;14.07;;;8.40;;
4939;SDS011;2485;49.326;7.214;2022-11-20T00:31:47;19.63;;;8.93;;
4939;SDS011;2485;49.326;7.214;2022-11-20T00:34:13;14.30;;;8.00;;
4939;SDS011;2485;49.326;7.214;2022-11-20T00:36:39;13.50;;;9.07;;
4939;SDS011;2485;49.326;7.214;2022-11-20T00:39:06;14.07;;;8.03;;
4939;SDS011;2485;49.326;7.214;2022-11-20T00:41:33;17.73;;;9.00;;
4939;SDS011;2485;49.326;7.214;2022-11-20T00:44:00;15.43;;;9.30;;
4939;SDS011;2485;49.326;7.214;2022-11-20T00:46:26;15.77;;;9.27;;
4939;SDS011;2485;49.326;7.214;2022-11-20T00:48:53;14.47;;;8.90;;
4939;SDS011;2485;49.326;7.214;2022-11-20T00:51:20;17.57;;;9.13;;
4939;SDS011;2485;49.326;7.214;2022-11-20T00:53:47;17.37;;;9.50;;
4939;SDS011;2485;49.326;7.214;2022-11-20T00:56:15;15.20;;;9.03;;
4939;SDS011;2485;49.326;7.214;2022-11-20T00:58:43;13.13;;;8.00;;
4939;SDS011;2485;49.326;7.214;2022-11-20T01:01:11;18.23;;;9.63;;
4939;SDS011;2485;49.326;7.214;2022-11-20T01:03:39;17.63;;;10.03;;
4939;SDS011;2485;49.326;7.214;2022-11-20T01:06:06;23.67;;;9.17;;
4939;SDS011;2485;49.326;7.214;2022-11-20T01:08:33;18.10;;;10.10;;
4939;SDS011;2485;49.326;7.214;2022-11-20T01:11:00;17.00;;;9.67;;
4939;SDS011;2485;49.326;7.214;2022-11-20T01:13:27;17.47;;;10.27;;
4939;SDS011;2485;49.326;7.214;2022-11-20T01:16:08;20.73;;;11.00;;
4939;SDS011;2485;49.326;7.214;2022-11-20T01:18:38;19.13;;;10.87;;
4939;SDS011;2485;49.326;7.214;2022-11-20T01:21:08;14.17;;;8.10;;
4939;SDS011;2485;49.326;7.214;2022-11-20T01:23:36;21.53;;;9.60;;
4939;SDS011;2485;49.326;7.214;2022-11-20T01:26:03;27.03;;;10.93;;
4939;SDS011;2485;49.326;7.214;2022-11-20T01:28:30;16.87;;;9.77;;
4939;SDS011;2485;49.326;7.214;2022-11-20T01:30:59;19.50;;;9.40;;
4939;SDS011;2485;49.326;7.214;2022-11-20T01:33:27;18.70;;;9.57;;
4939;SDS011;2485;49.326;7.214;2022-11-20T01:36:02;14.93;;;7.30;;
4939;SDS011;2485;49.326;7.214;2022-11-20T01:38:29;17.90;;;9.87;;
4939;SDS011;2485;49.326;7.214;2022-11-20T01:40:57;17.13;;;10.17;;
4939;SDS011;2485;49.326;7.214;2022-11-20T01:43:23;19.17;;;10.13;;
4939;SDS011;2485;49.326;7.214;2022-11-20T01:45:56;13.57;;;7.47;;
4939;SDS011;2485;49.326;7.214;2022-11-20T01:48:23;16.60;;;9.80;;
4939;SDS011;2485;49.326;7.214;2022-11-20T01:50:52;18.77;;;10.23;;
4939;SDS011;2485;49.326;7.214;2022-11-20T01:53:21;16.83;;;8.40;;
4939;SDS011;2485;49.326;7.214;2022-11-20T01:55:50;17.13;;;9.03;;
4939;SDS011;2485;49.326;7.214;2022-11-20T01:58:17;16.60;;;8.93;;
4939;SDS011;2485;49.326;7.214;2022-11-20T02:00:45;15.97;;;8.97;;
4939;SDS011;2485;49.326;7.214;2022-11-20T02:03:12;15.20;;;8.90;;
4939;SDS011;2485;49.326;7.214;2022-11-20T02:05:42;20.37;;;8.90;;
4939;SDS011;2485;49.326;7.214;2022-11-20T02:08:11;15.80;;;8.70;;
4939;SDS011;2485;49.326;7.214;2022-11-20T02:10:39;15.60;;;8.93;;
4939;SDS011;2485;49.326;7.214;2022-11-20T02:13:05;16.20;;;8.20;;
4939;SDS011;2485;49.326;7.214;2022-11-20T02:15:49;19.73;;;8.63;;
4939;SDS011;2485;49.326;7.214;2022-11-20T02:18:16;18.13;;;8.63;;
4939;SDS011;2485;49.326;7.214;2022-11-20T02:20:43;15.97;;;9.13;;
4939;SDS011;2485;49.326;7.214;2022-11-20T02:23:12;14.30;;;8.43;;
4939;SDS011;2485;49.326;7.214;2022-11-20T02:25:43;18.33;;;8.67;;
4939;SDS011;2485;49.326;7.214;2022-11-20T02:28:12;12.83;;;7.53;;
4939;SDS011;2485;49.326;7.214;2022-11-20T02:30:38;13.70;;;8.10;;
4939;SDS011;2485;49.326;7.214;2022-11-20T02:33:05;15.43;;;8.10;;
4939;SDS011;2485;49.326;7.214;2022-11-20T02:38:21;12.53;;;7.40;;
4939;SDS011;2485;49.326;7.214;2022-11-20T02:40:49;12.60;;;7.80;;
4939;SDS011;2485;49.326;7.214;2022-11-20T02:43:16;15.20;;;7.93;;
4939;SDS011;2485;49.326;7.214;2022-11-20T02:45:42;11.27;;;6.70;;
4939;SDS011;2485;49.326;7.214;2022-11-20T02:48:08;10.80;;;6.67;;
4939;SDS011;2485;49.326;7.214;2022-11-20T02:50:36;13.43;;;7.30;;
4939;SDS011;2485;49.326;7.214;2022-11-20T02:53:05;11.70;;;7.60;;
4939;SDS011;2485;49.326;7.214;2022-11-20T02:55:34;13.03;;;6.77;;
4939;SDS011;2485;49.326;7.214;2022-11-20T02:58:02;10.77;;;6.97;;
4939;SDS011;2485;49.326;7.214;2022-11-20T03:00:28;10.30;;;6.73;;
4939;SDS011;2485;49.326;7.214;2022-11-20T03:02:55;9.90;;;6.17;;
4939;SDS011;2485;49.326;7.214;2022-11-20T03:05:21;8.47;;;5.97;;
4939;SDS011;2485;49.326;7.214;2022-11-20T03:07:48;9.37;;;6.10;;
4939;SDS011;2485;49.326;7.214;2022-11-20T03:10:15;12.17;;;7.37;;
4939;SDS011;2485;49.326;7.214;2022-11-20T03:12:41;11.10;;;6.07;;
4939;SDS011;2485;49.326;7.214;2022-11-20T03:15:10;12.30;;;5.80;;
4939;SDS011;2485;49.326;7.214;2022-11-20T03:17:37;9.50;;;6.27;;
4939;SDS011;2485;49.326;7.214;2022-11-20T03:20:03;11.10;;;6.53;;
4939;SDS011;2485;49.326;7.214;2022-11-20T03:22:30;7.93;;;5.40;;
4939;SDS011;2485;49.326;7.214;2022-11-20T03:24:57;10.63;;;5.63;;
4939;SDS011;2485;49.326;7.214;2022-11-20T03:27:23;12.10;;;5.53;;
4939;SDS011;2485;49.326;7.214;2022-11-20T03:29:49;9.30;;;5.70;;
4939;SDS011;2485;49.326;7.214;2022-11-20T03:32:17;9.70;;;4.93;;
4939;SDS011;2485;49.326;7.214;2022-11-20T03:34:44;7.20;;;4.47;;
4939;SDS011;2485;49.326;7.214;2022-11-20T03:37:10;8.20;;;5.30;;
4939;SDS011;2485;49.326;7.214;2022-11-20T03:39:47;10.00;;;6.00;;
4939;SDS011;2485;49.326;7.214;2022-11-20T03:42:13;7.53;;;5.07;;
4939;SDS011;2485;49.326;7.214;2022-11-20T03:44:54;6.50;;;4.67;;
4939;SDS011;2485;49.326;7.214;2022-11-20T03:47:21;11.70;;;5.63;;
4939;SDS011;2485;49.326;7.214;2022-11-20T03:49:48;5.50;;;4.03;;
4939;SDS011;2485;49.326;7.214;2022-11-20T03:52:14;7.63;;;5.33;;
4939;SDS011;2485;49.326;7.214;2022-11-20T03:54:40;7.77;;;4.93;;
4939;SDS011;2485;49.326;7.214;2022-11-20T03:57:07;5.90;;;4.57;;
4939;SDS011;2485;49.326;7.214;2022-11-20T03:59:33;9.20;;;4.63;;
4939;SDS011;2485;49.326;7.214;2022-11-20T04:01:59;8.47;;;5.37;;
4939;SDS011;2485;49.326;7.214;2022-11-20T04:04:27;8.57;;;4.80;;
4939;SDS011;2485;49.326;7.214;2022-11-20T04:06:54;6.90;;;4.97;;
4939;SDS011;2485;49.326;7.214;2022-11-20T04:09:20;7.13;;;4.10;;
4939;SDS011;2485;49.326;7.214;2022-11-20T04:11:46;7.47;;;5.40;;
4939;SDS011;2485;49.326;7.214;2022-11-20T04:14:14;9.50;;;5.50;;
4939;SDS011;2485;49.326;7.214;2022-11-20T04:16:42;5.20;;;3.93;;
4939;SDS011;2485;49.326;7.214;2022-11-20T04:19:10;7.77;;;5.00;;
4939;SDS011;2485;49.326;7.214;2022-11-20T04:21:39;6.73;;;5.17;;
4939;SDS011;2485;49.326;7.214;2022-11-20T04:24:05;10.30;;;5.40;;
4939;SDS011;2485;49.326;7.214;2022-11-20T04:26:32;7.63;;;4.73;;
4939;SDS011;2485;49.326;7.214;2022-11-20T04:28:58;7.93;;;5.23;;
4939;SDS011;2485;49.326;7.214;2022-11-20T04:31:27;7.80;;;5.13;;
4939;SDS011;2485;49.326;7.214;2022-11-20T04:33:54;7.60;;;4.70;;
4939;SDS011;2485;49.326;7.214;2022-11-20T04:36:21;7.27;;;5.03;;
4939;SDS011;2485;49.326;7.214;2022-11-20T04:38:51;8.27;;;5.20;;
4939;SDS011;2485;49.326;7.214;2022-11-20T04:41:18;7.57;;;4.83;;
4939;SDS011;2485;49.326;7.214;2022-11-20T04:43:46;9.43;;;5.70;;
4939;SDS011;2485;49.326;7.214;2022-11-20T04:46:12;9.13;;;4.67;;
4939;SDS011;2485;49.326;7.214;2022-11-20T04:48:40;8.23;;;5.30;;
4939;SDS011;2485;49.326;7.214;2022-11-20T04:51:06;8.97;;;4.90;;
4939;SDS011;2485;49.326;7.214;2022-11-20T04:53:33;8.23;;;4.80;;
4939;SDS011;2485;49.326;7.214;2022-11-20T04:56:01;7.53;;;4.40;;
4939;SDS011;2485;49.326;7.214;2022-11-20T04:58:28;9.43;;;5.73;;
4939;SDS011;2485;49.326;7.214;2022-11-20T05:01:00;9.47;;;5.33;;
4939;SDS011;2485;49.326;7.214;2022-11-20T05:03:26;7.00;;;5.00;;
4939;SDS011;2485;49.326;7.214;2022-11-20T05:05:53;9.00;;;5.10;;
4939;SDS011;2485;49.326;7.214;2022-11-20T05:08:19;7.00;;;5.00;;
4939;SDS011;2485;49.326;7.214;2022-11-20T05:10:47;7.50;;;5.23;;
4939;SDS011;2485;49.326;7.214;2022-11-20T05:13:15;10.80;;;5.13;;
4939;SDS011;2485;49.326;7.214;2022-11-20T05:15:41;6.50;;;4.87;;
4939;SDS011;2485;49.326;7.214;2022-11-20T05:18:07;7.20;;;5.40;;
4939;SDS011;2485;49.326;7.214;2022-11-20T05:20:35;11.40;;;6.50;;
4939;SDS011;2485;49.326;7.214;2022-11-20T05:23:02;11.13;;;6.50;;
4939;SDS011;2485;49.326;7.214;2022-11-20T05:25:28;10.10;;;5.97;;
4939;SDS011;2485;49.326;7.214;2022-11-20T05:27:54;13.23;;;6.73;;
4939;SDS011;2485;49.326;7.214;2022-11-20T05:30:22;9.97;;;6.83;;
4939;SDS011;2485;49.326;7.214;2022-11-20T05:32:49;9.73;;;6.63;;
4939;SDS011;2485;49.326;7.214;2022-11-20T05:35:15;10.27;;;6.80;;
4939;SDS011;2485;49.326;7.214;2022-11-20T05:37:41;11.53;;;7.43;;
4939;SDS011;2485;49.326;7.214;2022-11-20T05:40:08;14.67;;;7.80;;
4939;SDS011;2485;49.326;7.214;2022-11-20T05:42:35;18.53;;;8.67;;
4939;SDS011;2485;49.326;7.214;2022-11-20T05:45:02;9.93;;;6.67;;
4939;SDS011;2485;49.326;7.214;2022-11-20T05:47:32;11.53;;;7.00;;
4939;SDS011;2485;49.326;7.214;2022-11-20T05:49:59;11.57;;;6.60;;
4939;SDS011;2485;49.326;7.214;2022-11-20T05:52:27;13.27;;;6.83;;
4939;SDS011;2485;49.326;7.214;2022-11-20T05:54:54;10.83;;;6.20;;
4939;SDS011;2485;49.326;7.214;2022-11-20T05:57:24;11.07;;;6.57;;
4939;SDS011;2485;49.326;7.214;2022-11-20T05:59:50;13.57;;;6.83;;
4939;SDS011;2485;49.326;7.214;2022-11-20T06:02:16;13.40;;;6.60;;
4939;SDS011;2485;49.326;7.214;2022-11-20T06:04:44;13.20;;;5.63;;
4939;SDS011;2485;49.326;7.214;2022-11-20T06:07:10;8.57;;;5.37;;
4939;SDS011;2485;49.326;7.214;2022-11-20T06:09:37;11.57;;;6.30;;
4939;SDS011;2485;49.326;7.214;2022-11-20T06:12:04;10.13;;;6.63;;
4939;SDS011;2485;49.326;7.214;2022-11-20T06:14:30;10.50;;;6.50;;
4939;SDS011;2485;49.326;7.214;2022-11-20T06:16:57;11.13;;;6.77;;
4939;SDS011;2485;49.326;7.214;2022-11-20T06:19:23;12.23;;;6.80;;
4939;SDS011;2485;49.326;7.214;2022-11-20T06:21:54;11.20;;;7.10;;
4939;SDS011;2485;49.326;7.214;2022-11-20T06:24:20;10.70;;;6.87;;
4939;SDS011;2485;49.326;7.214;2022-11-20T06:26:50;13.43;;;8.57;;
4939;SDS011;2485;49.326;7.214;2022-11-20T06:29:17;16.13;;;8.50;;
4939;SDS011;2485;49.326;7.214;2022-11-20T06:31:43;14.47;;;8.60;;
4939;SDS011;2485;49.326;7.214;2022-11-20T06:34:09;14.00;;;8.17;;
4939;SDS011;2485;49.326;7.214;2022-11-20T06:36:36;14.93;;;8.50;;
4939;SDS011;2485;49.326;7.214;2022-11-20T06:39:03;15.70;;;9.30;;
4939;SDS011;2485;49.326;7.214;2022-11-20T06:41:30;17.00;;;8.50;;
4939;SDS011;2485;49.326;7.214;2022-11-20T06:43:56;17.07;;;8.10;;
4939;SDS011;2485;49.326;7.214;2022-11-20T06:46:22;17.43;;;9.47;;
4939;SDS011;2485;49.326;7.214;2022-11-20T06:48:49;18.03;;;10.10;;
4939;SDS011;2485;49.326;7.214;2022-11-20T06:51:16;16.47;;;9.17;;
4939;SDS011;2485;49.326;7.214;2022-11-20T06:53:44;14.87;;;9.30;;
4939;SDS011;2485;49.326;7.214;2022-11-20T06:56:12;15.63;;;10.57;;
4939;SDS011;2485;49.326;7.214;2022-11-20T06:58:38;16.90;;;10.17;;
4939;SDS011;2485;49.326;7.214;2022-11-20T07:01:06;16.10;;;10.10;;
4939;SDS011;2485;49.326;7.214;2022-11-20T07:03:32;14.77;;;9.90;;
4939;SDS011;2485;49.326;7.214;2022-11-20T07:05:59;16.13;;;9.77;;
4939;SDS011;2485;49.326;7.214;2022-11-20T07:08:26;14.70;;;9.60;;
4939;SDS011;2485;49.326;7.214;2022-11-20T07:10:56;16.00;;;9.87;;
4939;SDS011;2485;49.326;7.214;2022-11-20T07:13:24;18.50;;;10.87;;
4939;SDS011;2485;49.326;7.214;2022-11-20T07:15:50;19.63;;;10.40;;
4939;SDS011;2485;49.326;7.214;2022-11-20T07:18:18;15.47;;;9.83;;
4939;SDS011;2485;49.326;7.214;2022-11-20T07:20:44;16.03;;;11.20;;
4939;SDS011;2485;49.326;7.214;2022-11-20T07:23:11;19.63;;;11.00;;
4939;SDS011;2485;49.326;7.214;2022-11-20T07:25:37;18.67;;;11.30;;
4939;SDS011;2485;49.326;7.214;2022-11-20T07:28:04;17.10;;;10.10;;
4939;SDS011;2485;49.326;7.214;2022-11-20T07:30:31;22.70;;;9.47;;
4939;SDS011;2485;49.326;7.214;2022-11-20T07:32:58;13.10;;;8.93;;
4939;SDS011;2485;49.326;7.214;2022-11-20T07:35:24;18.50;;;9.70;;
4939;SDS011;2485;49.326;7.214;2022-11-20T07:37:51;12.73;;;8.70;;
4939;SDS011;2485;49.326;7.214;2022-11-20T07:40:17;13.13;;;8.77;;
4939;SDS011;2485;49.326;7.214;2022-11-20T07:42:47;15.27;;;7.87;;
4939;SDS011;2485;49.326;7.214;2022-11-20T07:45:15;11.53;;;6.90;;
4939;SDS011;2485;49.326;7.214;2022-11-20T07:47:42;12.13;;;8.20;;
4939;SDS011;2485;49.326;7.214;2022-11-20T07:50:09;10.80;;;7.03;;
4939;SDS011;2485;49.326;7.214;2022-11-20T07:52:35;12.73;;;7.27;;
4939;SDS011;2485;49.326;7.214;2022-11-20T07:55:05;11.87;;;7.73;;
4939;SDS011;2485;49.326;7.214;2022-11-20T07:57:31;8.40;;;6.47;;
4939;SDS011;2485;49.326;7.214;2022-11-20T07:59:58;10.83;;;7.30;;
4939;SDS011;2485;49.326;7.214;2022-11-20T08:02:24;18.87;;;8.17;;
4939;SDS011;2485;49.326;7.214;2022-11-20T08:04:52;11.80;;;7.67;;
4939;SDS011;2485;49.326;7.214;2022-11-20T08:07:19;11.00;;;6.37;;
4939;SDS011;2485;49.326;7.214;2022-11-20T08:09:45;11.93;;;7.20;;
4939;SDS011;2485;49.326;7.214;2022-11-20T08:12:15;11.03;;;6.63;;
4939;SDS011;2485;49.326;7.214;2022-11-20T08:15:00;8.73;;;5.80;;
4939;SDS011;2485;49.326;7.214;2022-11-20T08:17:27;11.63;;;8.13;;
4939;SDS011;2485;49.326;7.214;2022-11-20T08:19:54;10.70;;;7.40;;
4939;SDS011;2485;49.326;7.214;2022-11-20T08:22:21;10.97;;;7.50;;
4939;SDS011;2485;49.326;7.214;2022-11-20T08:24:47;11.17;;;7.37;;
4939;SDS011;2485;49.326;7.214;2022-11-20T08:27:14;10.63;;;7.30;;
4939;SDS011;2485;49.326;7.214;2022-11-20T08:29:40;14.47;;;8.20;;
4939;SDS011;2485;49.326;7.214;2022-11-20T08:32:07;9.60;;;6.87;;
4939;SDS011;2485;49.326;7.214;2022-11-20T08:34:33;9.10;;;7.10;;
4939;SDS011;2485;49.326;7.214;2022-11-20T08:37:02;11.33;;;7.67;;
4939;SDS011;2485;49.326;7.214;2022-11-20T08:39:29;10.93;;;6.90;;
4939;SDS011;2485;49.326;7.214;2022-11-20T08:41:55;11.27;;;7.77;;
4939;SDS011;2485;49.326;7.214;2022-11-20T08:44:22;9.50;;;6.70;;
4939;SDS011;2485;49.326;7.214;2022-11-20T08:46:52;10.10;;;6.37;;
4939;SDS011;2485;49.326;7.214;2022-11-20T08:49:19;11.53;;;7.23;;
4939;SDS011;2485;49.326;7.214;2022-11-20T08:51:46;10.07;;;6.77;;
4939;SDS011;2485;49.326;7.214;2022-11-20T08:54:18;9.13;;;5.03;;
4939;SDS011;2485;49.326;7.214;2022-11-20T08:56:46;9.47;;;6.27;;
4939;SDS011;2485;49.326;7.214;2022-11-20T08:59:13;15.00;;;7.10;;
4939;SDS011;2485;49.326;7.214;2022-11-20T09:01:40;12.03;;;6.13;;
4939;SDS011;2485;49.326;7.214;2022-11-20T09:04:06;7.27;;;4.60;;
4939;SDS011;2485;49.326;7.214;2022-11-20T09:06:32;8.83;;;5.83;;
4939;SDS011;2485;49.326;7.214;2022-11-20T09:08:59;6.80;;;5.60;;
4939;SDS011;2485;49.326;7.214;2022-11-20T09:11:27;9.80;;;5.57;;
4939;SDS011;2485;49.326;7.214;2022-11-20T09:13:53;8.77;;;5.67;;
4939;SDS011;2485;49.326;7.214;2022-11-20T09:16:19;9.03;;;5.30;;
4939;SDS011;2485;49.326;7.214;2022-11-20T09:18:46;8.20;;;5.10;;
4939;SDS011;2485;49.326;7.214;2022-11-20T09:21:12;9.03;;;6.03;;
4939;SDS011;2485;49.326;7.214;2022-11-20T09:23:41;9.37;;;5.17;;
4939;SDS011;2485;49.326;7.214;2022-11-20T09:26:09;10.50;;;4.90;;
4939;SDS011;2485;49.326;7.214;2022-11-20T09:28:38;6.27;;;4.77;;
4939;SDS011;2485;49.326;7.214;2022-11-20T09:31:04;9.20;;;5.30;;
4939;SDS011;2485;49.326;7.214;2022-11-20T09:33:31;8.60;;;5.57;;
4939;SDS011;2485;49.326;7.214;2022-11-20T09:35:59;6.90;;;4.50;;
4939;SDS011;2485;49.326;7.214;2022-11-20T09:38:25;8.73;;;5.97;;
4939;SDS011;2485;49.326;7.214;2022-11-20T09:40:53;10.80;;;6.27;;
4939;SDS011;2485;49.326;7.214;2022-11-20T09:43:23;11.03;;;5.83;;
4939;SDS011;2485;49.326;7.214;2022-11-20T09:45:58;10.10;;;4.47;;
4939;SDS011;2485;49.326;7.214;2022-11-20T09:48:30;11.83;;;5.27;;
4939;SDS011;2485;49.326;7.214;2022-11-20T09:51:01;8.73;;;5.30;;
4939;SDS011;2485;49.326;7.214;2022-11-20T09:53:33;8.50;;;5.20;;
4939;SDS011;2485;49.326;7.214;2022-11-20T09:56:01;14.13;;;4.63;;
4939;SDS011;2485;49.326;7.214;2022-11-20T09:58:31;8.37;;;5.60;;
4939;SDS011;2485;49.326;7.214;2022-11-20T10:01:03;14.37;;;5.87;;
4939;SDS011;2485;49.326;7.214;2022-11-20T10:03:36;17.67;;;5.37;;
4939;SDS011;2485;49.326;7.214;2022-11-20T10:06:04;12.77;;;5.60;;
4939;SDS011;2485;49.326;7.214;2022-11-20T10:08:33;11.80;;;5.43;;
4939;SDS011;2485;49.326;7.214;2022-11-20T10:11:04;6.10;;;3.50;;
4939;SDS011;2485;49.326;7.214;2022-11-20T10:13:35;5.87;;;4.33;;
4939;SDS011;2485;49.326;7.214;2022-11-20T10:16:11;4.37;;;3.03;;
4939;SDS011;2485;49.326;7.214;2022-11-20T10:18:47;12.53;;;3.40;;
4939;SDS011;2485;49.326;7.214;2022-11-20T10:21:17;8.10;;;3.43;;
4939;SDS011;2485;49.326;7.214;2022-11-20T10:23:50;3.80;;;2.93;;
4939;SDS011;2485;49.326;7.214;2022-11-20T10:26:22;8.20;;;3.30;;
4939;SDS011;2485;49.326;7.214;2022-11-20T10:29:01;5.43;;;3.40;;
4939;SDS011;2485;49.326;7.214;2022-11-20T10:31:31;6.60;;;3.67;;
4939;SDS011;2485;49.326;7.214;2022-11-20T10:33:59;8.53;;;4.50;;
4939;SDS011;2485;49.326;7.214;2022-11-20T10:36:27;8.50;;;3.33;;
4939;SDS011;2485;49.326;7.214;2022-11-20T10:38:54;3.97;;;3.20;;
4939;SDS011;2485;49.326;7.214;2022-11-20T10:41:23;5.20;;;3.20;;
4939;SDS011;2485;49.326;7.214;2022-11-20T10:43:50;5.43;;;2.73;;
4939;SDS011;2485;49.326;7.214;2022-11-20T10:46:18;4.83;;;3.00;;
4939;SDS011;2485;49.326;7.214;2022-11-20T10:48:48;5.53;;;3.20;;
4939;SDS011;2485;49.326;7.214;2022-11-20T10:51:18;9.60;;;3.63;;
4939;SDS011;2485;49.326;7.214;2022-11-20T10:53:51;7.17;;;2.80;;
4939;SDS011;2485;49.326;7.214;2022-11-20T10:56:21;6.47;;;3.00;;
4939;SDS011;2485;49.326;7.214;2022-11-20T10:58:52;7.00;;;3.60;;
4939;SDS011;2485;49.326;7.214;2022-11-20T11:01:22;8.30;;;3.53;;
4939;SDS011;2485;49.326;7.214;2022-11-20T11:03:50;9.20;;;3.67;;
4939;SDS011;2485;49.326;7.214;2022-11-20T11:06:18;3.83;;;2.20;;
4939;SDS011;2485;49.326;7.214;2022-11-20T11:09:01;14.47;;;3.50;;
4939;SDS011;2485;49.326;7.214;2022-11-20T11:11:28;10.33;;;2.80;;
4939;SDS011;2485;49.326;7.214;2022-11-20T11:14:03;7.87;;;3.20;;
4939;SDS011;2485;49.326;7.214;2022-11-20T11:16:30;6.90;;;3.40;;
4939;SDS011;2485;49.326;7.214;2022-11-20T11:19:07;4.73;;;3.40;;
4939;SDS011;2485;49.326;7.214;2022-11-20T11:21:37;9.87;;;4.77;;
4939;SDS011;2485;49.326;7.214;2022-11-20T11:24:15;15.00;;;4.93;;
4939;SDS011;2485;49.326;7.214;2022-11-20T11:26:50;5.03;;;2.90;;
4939;SDS011;2485;49.326;7.214;2022-11-20T11:29:19;10.73;;;3.20;;
4939;SDS011;2485;49.326;7.214;2022-11-20T11:31:45;8.93;;;3.43;;
4939;SDS011;2485;49.326;7.214;2022-11-20T11:34:13;16.53;;;4.30;;
4939;SDS011;2485;49.326;7.214;2022-11-20T11:36:41;7.63;;;2.50;;
4939;SDS011;2485;49.326;7.214;2022-11-20T11:39:11;2.80;;;1.97;;
4939;SDS011;2485;49.326;7.214;2022-11-20T11:41:39;4.00;;;2.70;;
4939;SDS011;2485;49.326;7.214;2022-11-20T11:44:13;6.17;;;2.70;;
4939;SDS011;2485;49.326;7.214;2022-11-20T11:46:58;5.23;;;1.97;;
4939;SDS011;2485;49.326;7.214;2022-11-20T11:49:26;6.10;;;1.87;;
4939;SDS011;2485;49.326;7.214;2022-11-20T11:52:00;3.80;;;1.83;;
4939;SDS011;2485;49.326;7.214;2022-11-20T11:54:28;7.37;;;2.93;;
4939;SDS011;2485;49.326;7.214;2022-11-20T11:56:58;7.17;;;2.00;;
4939;SDS011;2485;49.326;7.214;2022-11-20T11:59:26;9.50;;;2.80;;
4939;SDS011;2485;49.326;7.214;2022-11-20T12:01:55;4.47;;;2.00;;
4939;SDS011;2485;49.326;7.214;2022-11-20T12:04:27;9.93;;;1.80;;
4939;SDS011;2485;49.326;7.214;2022-11-20T12:07:03;3.03;;;1.80;;
4939;SDS011;2485;49.326;7.214;2022-11-20T12:09:35;6.67;;;1.73;;
4939;SDS011;2485;49.326;7.214;2022-11-20T12:12:04;2.70;;;1.60;;
4939;SDS011;2485;49.326;7.214;2022-11-20T12:14:32;3.53;;;1.80;;
4939;SDS011;2485;49.326;7.214;2022-11-20T12:16:59;4.50;;;2.10;;
4939;SDS011;2485;49.326;7.214;2022-11-20T12:19:27;3.50;;;1.40;;
4939;SDS011;2485;49.326;7.214;2022-11-20T12:21:57;4.80;;;1.80;;
4939;SDS011;2485;49.326;7.214;2022-11-20T12:24:32;7.53;;;1.60;;
4939;SDS011;2485;49.326;7.214;2022-11-20T12:27:04;3.30;;;1.53;;
4939;SDS011;2485;49.326;7.214;2022-11-20T12:29:36;4.27;;;1.90;;
4939;SDS011;2485;49.326;7.214;2022-11-20T12:32:18;2.60;;;1.37;;
4939;SDS011;2485;49.326;7.214;2022-11-20T12:34:52;4.67;;;1.70;;
4939;SDS011;2485;49.326;7.214;2022-11-20T12:37:29;3.00;;;1.40;;
4939;SDS011;2485;49.326;7.214;2022-11-20T12:39:58;2.50;;;1.60;;
4939;SDS011;2485;49.326;7.214;2022-11-20T12:42:39;4.03;;;1.73;;
4939;SDS011;2485;49.326;7.214;2022-11-20T12:45:29;4.10;;;1.40;;
4939;SDS011;2485;49.326;7.214;2022-11-20T12:50:47;6.87;;;2.60;;
4939;SDS011;2485;49.326;7.214;2022-11-20T12:53:20;4.43;;;1.60;;
4939;SDS011;2485;49.326;7.214;2022-11-20T12:55:49;4.13;;;1.10;;
4939;SDS011;2485;49.326;7.214;2022-11-20T12:58:20;9.77;;;2.20;;
4939;SDS011;2485;49.326;7.214;2022-11-20T13:00:53;4.10;;;1.20;;
4939;SDS011;2485;49.326;7.214;2022-11-20T13:06:11;4.30;;;1.27;;
4939;SDS011;2485;49.326;7.214;2022-11-20T13:08:45;1.70;;;1.20;;
4939;SDS011;2485;49.326;7.214;2022-11-20T13:11:17;1.90;;;1.23;;
4939;SDS011;2485;49.326;7.214;2022-11-20T13:16:30;3.03;;;1.10;;
4939;SDS011;2485;49.326;7.214;2022-11-20T13:19:00;2.10;;;1.20;;
4939;SDS011;2485;49.326;7.214;2022-11-20T13:21:36;4.93;;;1.43;;
4939;SDS011;2485;49.326;7.214;2022-11-20T13:24:05;5.60;;;1.40;;
4939;SDS011;2485;49.326;7.214;2022-11-20T13:26:32;2.60;;;1.30;;
4939;SDS011;2485;49.326;7.214;2022-11-20T13:29:00;3.60;;;1.60;;
4939;SDS011;2485;49.326;7.214;2022-11-20T13:31:28;5.60;;;1.30;;
4939;SDS011;2485;49.326;7.214;2022-11-20T13:33:56;4.13;;;1.33;;
4939;SDS011;2485;49.326;7.214;2022-11-20T13:36:23;1.33;;;1.23;;
4939;SDS011;2485;49.326;7.214;2022-11-20T13:38:52;4.13;;;1.40;;
4939;SDS011;2485;49.326;7.214;2022-11-20T13:41:24;3.90;;;1.50;;
4939;SDS011;2485;49.326;7.214;2022-11-20T13:43:57;3.90;;;1.60;;
4939;SDS011;2485;49.326;7.214;2022-11-20T13:46:34;4.33;;;1.40;;
4939;SDS011;2485;49.326;7.214;2022-11-20T13:49:05;5.77;;;1.40;;
4939;SDS011;2485;49.326;7.214;2022-11-20T13:51:34;6.43;;;1.63;;
4939;SDS011;2485;49.326;7.214;2022-11-20T13:57:07;3.57;;;1.33;;
4939;SDS011;2485;49.326;7.214;2022-11-20T13:59:59;4.83;;;1.60;;
4939;SDS011;2485;49.326;7.214;2022-11-20T14:02:33;3.60;;;1.50;;
4939;SDS011;2485;49.326;7.214;2022-11-20T14:05:27;5.13;;;1.30;;
4939;SDS011;2485;49.326;7.214;2022-11-20T14:08:12;1.20;;;0.97;;
4939;SDS011;2485;49.326;7.214;2022-11-20T14:14:15;4.43;;;1.60;;
4939;SDS011;2485;49.326;7.214;2022-11-20T14:17:35;3.20;;;1.50;;
4939;SDS011;2485;49.326;7.214;2022-11-20T14:20:31;1.93;;;1.00;;
4939;SDS011;2485;49.326;7.214;2022-11-20T14:32:32;1.80;;;1.27;;
4939;SDS011;2485;49.326;7.214;2022-11-20T14:35:20;1.83;;;1.20;;
4939;SDS011;2485;49.326;7.214;2022-11-20T14:38:08;4.93;;;1.60;;
4939;SDS011;2485;49.326;7.214;2022-11-20T14:40:53;6.30;;;1.37;;
4939;SDS011;2485;49.326;7.214;2022-11-20T14:49:50;3.87;;;1.40;;
4939;SDS011;2485;49.326;7.214;2022-11-20T14:53:01;4.80;;;1.70;;
4939;SDS011;2485;49.326;7.214;2022-11-20T14:55:53;3.00;;;1.93;;
4939;SDS011;2485;49.326;7.214;2022-11-20T15:01:54;2.90;;;1.70;;
4939;SDS011;2485;49.326;7.214;2022-11-20T15:04:50;7.07;;;1.50;;
4939;SDS011;2485;49.326;7.214;2022-11-20T15:07:23;6.57;;;2.23;;
4939;SDS011;2485;49.326;7.214;2022-11-20T15:09:59;1.83;;;1.27;;
4939;SDS011;2485;49.326;7.214;2022-11-20T15:12:26;3.70;;;1.50;;
4939;SDS011;2485;49.326;7.214;2022-11-20T15:14:52;1.53;;;1.20;;
4939;SDS011;2485;49.326;7.214;2022-11-20T15:17:21;2.30;;;1.37;;
4939;SDS011;2485;49.326;7.214;2022-11-20T15:19:47;2.13;;;1.40;;
4939;SDS011;2485;49.326;7.214;2022-11-20T15:22:15;5.93;;;2.10;;
4939;SDS011;2485;49.326;7.214;2022-11-20T15:24:42;1.57;;;1.40;;
4939;SDS011;2485;49.326;7.214;2022-11-20T15:27:08;5.33;;;1.60;;
4939;SDS011;2485;49.326;7.214;2022-11-20T15:29:35;3.03;;;1.93;;
4939;SDS011;2485;49.326;7.214;2022-11-20T15:32:02;1.97;;;1.20;;
4939;SDS011;2485;49.326;7.214;2022-11-20T15:34:28;6.73;;;1.47;;
4939;SDS011;2485;49.326;7.214;2022-11-20T15:36:55;2.60;;;1.67;;
4939;SDS011;2485;49.326;7.214;2022-11-20T15:39:22;4.13;;;1.70;;
4939;SDS011;2485;49.326;7.214;2022-11-20T15:41:49;6.27;;;2.10;;
4939;SDS011;2485;49.326;7.214;2022-11-20T15:44:15;4.90;;;1.40;;
4939;SDS011;2485;49.326;7.214;2022-11-20T15:46:41;7.90;;;2.23;;
4939;SDS011;2485;49.326;7.214;2022-11-20T15:49:12;14.30;;;2.90;;
4939;SDS011;2485;49.326;7.214;2022-11-20T15:51:39;4.30;;;1.90;;
4939;SDS011;2485;49.326;7.214;2022-11-20T15:54:09;3.30;;;1.83;;
4939;SDS011;2485;49.326;7.214;2022-11-20T15:56:37;8.20;;;2.40;;
4939;SDS011;2485;49.326;7.214;2022-11-20T15:59:04;2.60;;;1.43;;